sensor_id;sensor_type;location;lat;lon;timestamp;P1;durP1;ratioP1;P2;durP2;ratioP2
69795;SDS011;57073;45.650;9.612;2023-12-20T00:01:33;10.10;;;5.63;;
69795;SDS011;57073;45.650;9.612;2023-12-20T00:06:33;10.40;;;5.77;;
69795;SDS011;57073;45.650;9.612;2023-12-20T00:11:33;9.87;;;5.70;;
69795;SDS011;57073;45.650;9.612;2023-12-20T00:16:34;11.30;;;5.73;;
69795;SDS011;57073;45.650;9.612;2023-12-20T00:21:34;9.90;;;5.63;;
69795;SDS011;57073;45.650;9.612;2023-12-20T00:26:34;11.63;;;5.70;;
69795;SDS011;57073;45.650;9.612;2023-12-20T00:31:35;8.93;;;5.30;;
69795;SDS011;57073;45.650;9.612;2023-12-20T00:36:36;8.95;;;5.40;;
69795;SDS011;57073;45.650;9.612;2023-12-20T00:41:37;9.68;;;5.32;;
69795;SDS011;57073;45.650;9.612;2023-12-20T00:46:37;9.67;;;4.97;;
69795;SDS011;57073;45.650;9.612;2023-12-20T00:51:37;10.47;;;5.40;;
69795;SDS011;57073;45.650;9.612;2023-12-20T00:56:38;11.90;;;5.10;;
69795;SDS011;57073;45.650;9.612;2023-12-20T01:01:38;9.10;;;4.80;;
69795;SDS011;57073;45.650;9.612;2023-12-20T01:06:38;10.20;;;5.00;;
69795;SDS011;57073;45.650;9.612;2023-12-20T01:11:39;8.97;;;4.83;;
69795;SDS011;57073;45.650;9.612;2023-12-20T01:16:39;9.77;;;4.93;;
69795;SDS011;57073;45.650;9.612;2023-12-20T01:21:40;9.30;;;4.50;;
69795;SDS011;57073;45.650;9.612;2023-12-20T01:26:40;8.27;;;4.53;;
69795;SDS011;57073;45.650;9.612;2023-12-20T01:31:40;7.33;;;4.23;;
69795;SDS011;57073;45.650;9.612;2023-12-20T01:36:41;6.75;;;4.05;;
69795;SDS011;57073;45.650;9.612;2023-12-20T01:41:41;7.13;;;4.07;;
69795;SDS011;57073;45.650;9.612;2023-12-20T01:46:42;7.90;;;3.93;;
69795;SDS011;57073;45.650;9.612;2023-12-20T01:51:42;9.20;;;4.00;;
69795;SDS011;57073;45.650;9.612;2023-12-20T01:56:44;5.23;;;3.10;;
69795;SDS011;57073;45.650;9.612;2023-12-20T02:01:44;5.73;;;3.20;;
69795;SDS011;57073;45.650;9.612;2023-12-20T02:06:45;8.60;;;3.85;;
69795;SDS011;57073;45.650;9.612;2023-12-20T02:11:46;5.30;;;2.70;;
69795;SDS011;57073;45.650;9.612;2023-12-20T02:16:47;5.93;;;3.23;;
69795;SDS011;57073;45.650;9.612;2023-12-20T02:21:48;6.28;;;3.10;;
69795;SDS011;57073;45.650;9.612;2023-12-20T02:26:48;6.40;;;3.57;;
69795;SDS011;57073;45.650;9.612;2023-12-20T02:31:48;6.60;;;3.00;;
69795;SDS011;57073;45.650;9.612;2023-12-20T02:36:49;4.37;;;2.83;;
69795;SDS011;57073;45.650;9.612;2023-12-20T02:41:49;4.90;;;2.60;;
69795;SDS011;57073;45.650;9.612;2023-12-20T02:46:49;4.10;;;2.63;;
69795;SDS011;57073;45.650;9.612;2023-12-20T02:51:50;5.57;;;2.37;;
69795;SDS011;57073;45.650;9.612;2023-12-20T02:56:50;4.88;;;2.53;;
69795;SDS011;57073;45.650;9.612;2023-12-20T03:01:51;4.57;;;2.50;;
69795;SDS011;57073;45.650;9.612;2023-12-20T03:06:51;5.63;;;2.50;;
69795;SDS011;57073;45.650;9.612;2023-12-20T03:11:51;7.10;;;2.67;;
69795;SDS011;57073;45.650;9.612;2023-12-20T03:16:52;5.87;;;2.70;;
69795;SDS011;57073;45.650;9.612;2023-12-20T03:21:52;5.10;;;2.50;;
69795;SDS011;57073;45.650;9.612;2023-12-20T03:26:53;5.97;;;2.67;;
69795;SDS011;57073;45.650;9.612;2023-12-20T03:31:54;4.60;;;2.60;;
69795;SDS011;57073;45.650;9.612;2023-12-20T03:36:54;4.63;;;2.57;;
69795;SDS011;57073;45.650;9.612;2023-12-20T03:41:54;6.30;;;2.90;;
69795;SDS011;57073;45.650;9.612;2023-12-20T03:46:55;5.77;;;2.87;;
69795;SDS011;57073;45.650;9.612;2023-12-20T03:51:55;4.47;;;2.37;;
69795;SDS011;57073;45.650;9.612;2023-12-20T03:56:55;4.77;;;2.07;;
69795;SDS011;57073;45.650;9.612;2023-12-20T04:01:56;5.23;;;2.40;;
69795;SDS011;57073;45.650;9.612;2023-12-20T04:06:56;4.43;;;2.33;;
69795;SDS011;57073;45.650;9.612;2023-12-20T04:11:57;4.50;;;2.10;;
69795;SDS011;57073;45.650;9.612;2023-12-20T04:16:57;5.00;;;2.80;;
69795;SDS011;57073;45.650;9.612;2023-12-20T04:21:57;5.17;;;2.27;;
69795;SDS011;57073;45.650;9.612;2023-12-20T04:26:58;4.27;;;2.47;;
69795;SDS011;57073;45.650;9.612;2023-12-20T04:31:58;5.20;;;2.30;;
69795;SDS011;57073;45.650;9.612;2023-12-20T04:36:59;2.83;;;1.80;;
69795;SDS011;57073;45.650;9.612;2023-12-20T04:41:59;3.97;;;1.50;;
69795;SDS011;57073;45.650;9.612;2023-12-20T04:46:59;4.47;;;1.60;;
69795;SDS011;57073;45.650;9.612;2023-12-20T04:52:01;3.20;;;1.60;;
69795;SDS011;57073;45.650;9.612;2023-12-20T04:57:02;2.23;;;1.17;;
69795;SDS011;57073;45.650;9.612;2023-12-20T05:02:02;3.50;;;1.50;;
69795;SDS011;57073;45.650;9.612;2023-12-20T05:07:03;4.33;;;1.97;;
69795;SDS011;57073;45.650;9.612;2023-12-20T05:12:05;4.78;;;2.10;;
69795;SDS011;57073;45.650;9.612;2023-12-20T05:17:06;4.43;;;2.20;;
69795;SDS011;57073;45.650;9.612;2023-12-20T05:22:06;4.87;;;2.67;;
69795;SDS011;57073;45.650;9.612;2023-12-20T05:27:07;5.20;;;2.60;;
69795;SDS011;57073;45.650;9.612;2023-12-20T05:32:07;7.83;;;3.10;;
69795;SDS011;57073;45.650;9.612;2023-12-20T05:37:07;8.80;;;3.77;;
69795;SDS011;57073;45.650;9.612;2023-12-20T05:42:08;6.37;;;3.13;;
69795;SDS011;57073;45.650;9.612;2023-12-20T05:47:08;5.30;;;2.67;;
69795;SDS011;57073;45.650;9.612;2023-12-20T05:52:08;6.53;;;3.30;;
69795;SDS011;57073;45.650;9.612;2023-12-20T05:57:09;6.87;;;3.23;;
69795;SDS011;57073;45.650;9.612;2023-12-20T06:02:09;6.47;;;3.30;;
69795;SDS011;57073;45.650;9.612;2023-12-20T06:07:13;6.43;;;3.10;;
69795;SDS011;57073;45.650;9.612;2023-12-20T06:12:14;7.75;;;3.38;;
69795;SDS011;57073;45.650;9.612;2023-12-20T06:17:14;8.93;;;3.40;;
69795;SDS011;57073;45.650;9.612;2023-12-20T06:22:15;7.20;;;3.57;;
69795;SDS011;57073;45.650;9.612;2023-12-20T06:27:15;8.90;;;3.37;;
69795;SDS011;57073;45.650;9.612;2023-12-20T06:32:16;8.65;;;3.42;;
69795;SDS011;57073;45.650;9.612;2023-12-20T06:37:16;9.77;;;3.57;;
69795;SDS011;57073;45.650;9.612;2023-12-20T06:42:17;7.43;;;3.47;;
69795;SDS011;57073;45.650;9.612;2023-12-20T06:47:17;6.40;;;3.40;;
69795;SDS011;57073;45.650;9.612;2023-12-20T06:52:18;7.33;;;2.90;;
69795;SDS011;57073;45.650;9.612;2023-12-20T06:57:18;8.03;;;3.57;;
69795;SDS011;57073;45.650;9.612;2023-12-20T07:02:19;5.83;;;3.10;;
69795;SDS011;57073;45.650;9.612;2023-12-20T07:07:21;9.40;;;3.47;;
69795;SDS011;57073;45.650;9.612;2023-12-20T07:12:23;6.83;;;3.20;;
69795;SDS011;57073;45.650;9.612;2023-12-20T07:17:23;5.70;;;3.17;;
69795;SDS011;57073;45.650;9.612;2023-12-20T07:22:24;6.50;;;2.63;;
69795;SDS011;57073;45.650;9.612;2023-12-20T07:27:24;8.03;;;2.87;;
69795;SDS011;57073;45.650;9.612;2023-12-20T07:32:24;6.47;;;2.63;;
69795;SDS011;57073;45.650;9.612;2023-12-20T07:37:25;7.27;;;3.63;;
69795;SDS011;57073;45.650;9.612;2023-12-20T07:42:25;5.37;;;2.60;;
69795;SDS011;57073;45.650;9.612;2023-12-20T07:47:26;7.47;;;3.03;;
69795;SDS011;57073;45.650;9.612;2023-12-20T07:52:26;8.17;;;2.90;;
69795;SDS011;57073;45.650;9.612;2023-12-20T07:57:28;7.07;;;2.80;;
69795;SDS011;57073;45.650;9.612;2023-12-20T08:02:29;5.43;;;2.90;;
69795;SDS011;57073;45.650;9.612;2023-12-20T08:07:29;6.30;;;2.88;;
69795;SDS011;57073;45.650;9.612;2023-12-20T08:12:30;6.20;;;3.17;;
69795;SDS011;57073;45.650;9.612;2023-12-20T08:17:30;12.87;;;7.00;;
69795;SDS011;57073;45.650;9.612;2023-12-20T08:22:31;7.70;;;4.28;;
69795;SDS011;57073;45.650;9.612;2023-12-20T08:27:31;10.73;;;4.40;;
69795;SDS011;57073;45.650;9.612;2023-12-20T08:32:31;10.88;;;4.38;;
69795;SDS011;57073;45.650;9.612;2023-12-20T08:37:32;11.27;;;5.20;;
69795;SDS011;57073;45.650;9.612;2023-12-20T08:42:32;10.43;;;5.23;;
69795;SDS011;57073;45.650;9.612;2023-12-20T08:47:33;8.80;;;4.70;;
69795;SDS011;57073;45.650;9.612;2023-12-20T08:52:34;11.33;;;5.30;;
69795;SDS011;57073;45.650;9.612;2023-12-20T08:57:34;13.37;;;6.00;;
69795;SDS011;57073;45.650;9.612;2023-12-20T09:02:35;15.50;;;6.53;;
69795;SDS011;57073;45.650;9.612;2023-12-20T09:07:36;13.07;;;5.57;;
69795;SDS011;57073;45.650;9.612;2023-12-20T09:12:36;13.67;;;6.03;;
69795;SDS011;57073;45.650;9.612;2023-12-20T09:17:40;12.32;;;6.35;;
69795;SDS011;57073;45.650;9.612;2023-12-20T09:22:41;12.70;;;5.83;;
69795;SDS011;57073;45.650;9.612;2023-12-20T09:27:42;15.77;;;6.72;;
69795;SDS011;57073;45.650;9.612;2023-12-20T09:32:42;14.52;;;6.43;;
69795;SDS011;57073;45.650;9.612;2023-12-20T09:37:42;18.87;;;7.27;;
69795;SDS011;57073;45.650;9.612;2023-12-20T09:47:45;16.77;;;7.03;;
69795;SDS011;57073;45.650;9.612;2023-12-20T09:52:47;15.30;;;6.05;;
69795;SDS011;57073;45.650;9.612;2023-12-20T09:57:50;14.20;;;6.33;;
69795;SDS011;57073;45.650;9.612;2023-12-20T10:02:56;12.97;;;5.33;;
69795;SDS011;57073;45.650;9.612;2023-12-20T10:07:58;12.57;;;5.70;;
69795;SDS011;57073;45.650;9.612;2023-12-20T10:13:09;9.77;;;5.18;;
69795;SDS011;57073;45.650;9.612;2023-12-20T10:18:11;15.17;;;4.43;;
69795;SDS011;57073;45.650;9.612;2023-12-20T10:23:12;9.82;;;4.80;;
69795;SDS011;57073;45.650;9.612;2023-12-20T10:28:14;11.57;;;4.78;;
69795;SDS011;57073;45.650;9.612;2023-12-20T10:33:27;13.97;;;5.83;;
69795;SDS011;57073;45.650;9.612;2023-12-20T10:38:35;14.68;;;5.70;;
69795;SDS011;57073;45.650;9.612;2023-12-20T10:43:40;12.52;;;6.03;;
69795;SDS011;57073;45.650;9.612;2023-12-20T10:48:41;13.70;;;6.73;;
69795;SDS011;57073;45.650;9.612;2023-12-20T10:53:44;13.73;;;6.80;;
69795;SDS011;57073;45.650;9.612;2023-12-20T10:58:47;16.10;;;7.50;;
69795;SDS011;57073;45.650;9.612;2023-12-20T11:14:20;24.80;;;10.70;;
69795;SDS011;57073;45.650;9.612;2023-12-20T11:19:25;23.35;;;10.63;;
69795;SDS011;57073;45.650;9.612;2023-12-20T11:24:26;23.83;;;13.07;;
69795;SDS011;57073;45.650;9.612;2023-12-20T11:29:33;22.20;;;12.40;;
69795;SDS011;57073;45.650;9.612;2023-12-20T11:34:35;28.38;;;12.38;;
69795;SDS011;57073;45.650;9.612;2023-12-20T11:39:35;28.90;;;12.80;;
69795;SDS011;57073;45.650;9.612;2023-12-20T11:44:36;23.27;;;13.43;;
69795;SDS011;57073;45.650;9.612;2023-12-20T11:49:37;25.30;;;12.95;;
69795;SDS011;57073;45.650;9.612;2023-12-20T11:54:37;28.93;;;15.77;;
69795;SDS011;57073;45.650;9.612;2023-12-20T11:59:38;29.27;;;16.60;;
69795;SDS011;57073;45.650;9.612;2023-12-20T12:04:40;31.87;;;16.27;;
69795;SDS011;57073;45.650;9.612;2023-12-20T12:09:41;30.52;;;16.98;;
69795;SDS011;57073;45.650;9.612;2023-12-20T12:14:42;31.70;;;17.73;;
69795;SDS011;57073;45.650;9.612;2023-12-20T12:19:44;32.20;;;17.55;;
69795;SDS011;57073;45.650;9.612;2023-12-20T12:24:45;31.43;;;18.67;;
69795;SDS011;57073;45.650;9.612;2023-12-20T12:30:00;33.90;;;18.75;;
69795;SDS011;57073;45.650;9.612;2023-12-20T12:35:04;33.20;;;18.63;;
69795;SDS011;57073;45.650;9.612;2023-12-20T12:40:16;31.10;;;17.88;;
69795;SDS011;57073;45.650;9.612;2023-12-20T12:45:17;28.70;;;17.48;;
69795;SDS011;57073;45.650;9.612;2023-12-20T12:50:17;30.47;;;17.67;;
69795;SDS011;57073;45.650;9.612;2023-12-20T12:55:18;35.50;;;18.10;;
69795;SDS011;57073;45.650;9.612;2023-12-20T13:00:18;31.37;;;18.67;;
69795;SDS011;57073;45.650;9.612;2023-12-20T13:05:19;31.30;;;17.87;;
69795;SDS011;57073;45.650;9.612;2023-12-20T13:10:19;32.40;;;18.17;;
69795;SDS011;57073;45.650;9.612;2023-12-20T13:15:20;32.23;;;18.97;;
69795;SDS011;57073;45.650;9.612;2023-12-20T13:20:20;31.43;;;17.87;;
69795;SDS011;57073;45.650;9.612;2023-12-20T13:25:22;31.67;;;18.00;;
69795;SDS011;57073;45.650;9.612;2023-12-20T13:30:22;29.67;;;16.97;;
69795;SDS011;57073;45.650;9.612;2023-12-20T13:35:22;27.00;;;16.10;;
69795;SDS011;57073;45.650;9.612;2023-12-20T13:40:23;33.20;;;18.23;;
69795;SDS011;57073;45.650;9.612;2023-12-20T13:45:23;29.20;;;17.17;;
69795;SDS011;57073;45.650;9.612;2023-12-20T13:50:25;32.88;;;18.58;;
69795;SDS011;57073;45.650;9.612;2023-12-20T13:55:26;31.40;;;18.67;;
69795;SDS011;57073;45.650;9.612;2023-12-20T14:00:27;30.13;;;17.98;;
69795;SDS011;57073;45.650;9.612;2023-12-20T14:05:27;31.83;;;18.70;;
69795;SDS011;57073;45.650;9.612;2023-12-20T14:10:28;36.63;;;20.43;;
69795;SDS011;57073;45.650;9.612;2023-12-20T14:15:28;32.60;;;19.60;;
69795;SDS011;57073;45.650;9.612;2023-12-20T14:20:29;33.33;;;19.27;;
69795;SDS011;57073;45.650;9.612;2023-12-20T14:25:29;28.93;;;17.57;;
69795;SDS011;57073;45.650;9.612;2023-12-20T14:30:31;27.30;;;17.48;;
69795;SDS011;57073;45.650;9.612;2023-12-20T14:35:32;30.65;;;17.45;;
69795;SDS011;57073;45.650;9.612;2023-12-20T14:40:32;33.77;;;18.33;;
69795;SDS011;57073;45.650;9.612;2023-12-20T14:45:33;29.07;;;17.07;;
69795;SDS011;57073;45.650;9.612;2023-12-20T14:50:33;33.50;;;18.77;;
69795;SDS011;57073;45.650;9.612;2023-12-20T14:55:34;42.93;;;23.77;;
69795;SDS011;57073;45.650;9.612;2023-12-20T15:00:35;33.07;;;20.30;;
69795;SDS011;57073;45.650;9.612;2023-12-20T15:05:35;35.90;;;20.57;;
69795;SDS011;57073;45.650;9.612;2023-12-20T15:10:36;32.97;;;19.47;;
69795;SDS011;57073;45.650;9.612;2023-12-20T15:15:36;35.73;;;20.53;;
69795;SDS011;57073;45.650;9.612;2023-12-20T15:20:37;34.83;;;20.83;;
69795;SDS011;57073;45.650;9.612;2023-12-20T15:25:38;36.73;;;21.13;;
69795;SDS011;57073;45.650;9.612;2023-12-20T15:30:38;32.33;;;20.07;;
69795;SDS011;57073;45.650;9.612;2023-12-20T15:35:38;40.10;;;22.23;;
69795;SDS011;57073;45.650;9.612;2023-12-20T15:40:39;32.80;;;20.37;;
69795;SDS011;57073;45.650;9.612;2023-12-20T15:45:39;43.80;;;21.80;;
69795;SDS011;57073;45.650;9.612;2023-12-20T15:50:40;32.07;;;19.13;;
69795;SDS011;57073;45.650;9.612;2023-12-20T15:55:40;43.93;;;20.33;;
69795;SDS011;57073;45.650;9.612;2023-12-20T16:00:41;43.15;;;22.70;;
69795;SDS011;57073;45.650;9.612;2023-12-20T16:05:42;39.00;;;21.97;;
69795;SDS011;57073;45.650;9.612;2023-12-20T16:10:42;43.03;;;22.45;;
69795;SDS011;57073;45.650;9.612;2023-12-20T16:15:42;46.67;;;23.20;;
69795;SDS011;57073;45.650;9.612;2023-12-20T16:20:43;42.15;;;22.13;;
69795;SDS011;57073;45.650;9.612;2023-12-20T16:25:43;39.70;;;23.43;;
69795;SDS011;57073;45.650;9.612;2023-12-20T16:30:44;45.33;;;21.37;;
69795;SDS011;57073;45.650;9.612;2023-12-20T16:35:44;41.17;;;21.40;;
69795;SDS011;57073;45.650;9.612;2023-12-20T16:40:44;38.67;;;21.10;;
69795;SDS011;57073;45.650;9.612;2023-12-20T16:45:45;37.90;;;21.73;;
69795;SDS011;57073;45.650;9.612;2023-12-20T16:50:46;40.77;;;22.50;;
69795;SDS011;57073;45.650;9.612;2023-12-20T16:55:46;41.37;;;22.07;;
69795;SDS011;57073;45.650;9.612;2023-12-20T17:00:47;43.80;;;22.80;;
69795;SDS011;57073;45.650;9.612;2023-12-20T17:05:47;47.07;;;23.60;;
69795;SDS011;57073;45.650;9.612;2023-12-20T17:10:47;43.30;;;23.60;;
69795;SDS011;57073;45.650;9.612;2023-12-20T17:15:48;46.50;;;24.17;;
69795;SDS011;57073;45.650;9.612;2023-12-20T17:20:48;45.27;;;23.60;;
69795;SDS011;57073;45.650;9.612;2023-12-20T17:25:48;45.90;;;24.53;;
69795;SDS011;57073;45.650;9.612;2023-12-20T17:30:49;44.03;;;24.13;;
69795;SDS011;57073;45.650;9.612;2023-12-20T17:35:49;50.13;;;25.57;;
69795;SDS011;57073;45.650;9.612;2023-12-20T17:40:49;41.63;;;21.47;;
69795;SDS011;57073;45.650;9.612;2023-12-20T17:45:50;107.35;;;46.55;;
69795;SDS011;57073;45.650;9.612;2023-12-20T17:50:50;52.28;;;25.92;;
69795;SDS011;57073;45.650;9.612;2023-12-20T17:55:51;45.97;;;25.37;;
69795;SDS011;57073;45.650;9.612;2023-12-20T18:00:51;48.00;;;25.43;;
69795;SDS011;57073;45.650;9.612;2023-12-20T18:05:51;48.70;;;23.07;;
69795;SDS011;57073;45.650;9.612;2023-12-20T18:10:52;45.77;;;22.00;;
69795;SDS011;57073;45.650;9.612;2023-12-20T18:15:52;48.00;;;22.90;;
69795;SDS011;57073;45.650;9.612;2023-12-20T18:20:53;44.07;;;22.97;;
69795;SDS011;57073;45.650;9.612;2023-12-20T18:25:54;53.33;;;26.47;;
69795;SDS011;57073;45.650;9.612;2023-12-20T18:30:55;45.45;;;24.95;;
69795;SDS011;57073;45.650;9.612;2023-12-20T18:35:56;47.03;;;22.67;;
69795;SDS011;57073;45.650;9.612;2023-12-20T18:40:56;44.00;;;24.17;;
69795;SDS011;57073;45.650;9.612;2023-12-20T18:45:56;43.80;;;24.17;;
69795;SDS011;57073;45.650;9.612;2023-12-20T18:50:58;47.53;;;24.42;;
69795;SDS011;57073;45.650;9.612;2023-12-20T18:55:58;44.10;;;24.70;;
69795;SDS011;57073;45.650;9.612;2023-12-20T19:00:59;50.07;;;27.10;;
69795;SDS011;57073;45.650;9.612;2023-12-20T19:06:00;48.75;;;26.73;;
69795;SDS011;57073;45.650;9.612;2023-12-20T19:11:02;65.10;;;33.93;;
69795;SDS011;57073;45.650;9.612;2023-12-20T19:16:03;45.97;;;26.58;;
69795;SDS011;57073;45.650;9.612;2023-12-20T19:21:04;49.90;;;27.07;;
69795;SDS011;57073;45.650;9.612;2023-12-20T19:26:08;53.70;;;26.48;;
69795;SDS011;57073;45.650;9.612;2023-12-20T19:31:12;59.10;;;29.60;;
69795;SDS011;57073;45.650;9.612;2023-12-20T19:36:13;54.58;;;30.27;;
69795;SDS011;57073;45.650;9.612;2023-12-20T19:41:13;53.20;;;28.93;;
69795;SDS011;57073;45.650;9.612;2023-12-20T19:46:14;50.23;;;28.00;;
69795;SDS011;57073;45.650;9.612;2023-12-20T19:51:14;49.20;;;26.87;;
69795;SDS011;57073;45.650;9.612;2023-12-20T19:56:15;53.97;;;25.90;;
69795;SDS011;57073;45.650;9.612;2023-12-20T20:01:15;45.60;;;26.30;;
69795;SDS011;57073;45.650;9.612;2023-12-20T20:06:16;48.53;;;27.03;;
69795;SDS011;57073;45.650;9.612;2023-12-20T20:11:16;51.63;;;26.17;;
69795;SDS011;57073;45.650;9.612;2023-12-20T20:16:16;53.33;;;27.67;;
69795;SDS011;57073;45.650;9.612;2023-12-20T20:21:17;50.93;;;26.20;;
69795;SDS011;57073;45.650;9.612;2023-12-20T20:26:17;48.63;;;26.10;;
69795;SDS011;57073;45.650;9.612;2023-12-20T20:31:18;48.80;;;26.93;;
69795;SDS011;57073;45.650;9.612;2023-12-20T20:36:18;46.05;;;26.88;;
69795;SDS011;57073;45.650;9.612;2023-12-20T20:41:19;51.63;;;25.35;;
69795;SDS011;57073;45.650;9.612;2023-12-20T20:46:20;42.80;;;23.43;;
69795;SDS011;57073;45.650;9.612;2023-12-20T20:51:21;42.45;;;23.17;;
69795;SDS011;57073;45.650;9.612;2023-12-20T20:56:21;37.97;;;21.23;;
69795;SDS011;57073;45.650;9.612;2023-12-20T21:01:22;41.47;;;22.30;;
69795;SDS011;57073;45.650;9.612;2023-12-20T21:06:22;39.03;;;21.97;;
69795;SDS011;57073;45.650;9.612;2023-12-20T21:11:22;37.87;;;22.07;;
69795;SDS011;57073;45.650;9.612;2023-12-20T21:16:23;41.13;;;23.23;;
69795;SDS011;57073;45.650;9.612;2023-12-20T21:21:23;38.50;;;22.27;;
69795;SDS011;57073;45.650;9.612;2023-12-20T21:26:24;44.47;;;22.93;;
69795;SDS011;57073;45.650;9.612;2023-12-20T21:31:24;45.43;;;23.53;;
69795;SDS011;57073;45.650;9.612;2023-12-20T21:36:25;41.70;;;23.10;;
69795;SDS011;57073;45.650;9.612;2023-12-20T21:41:25;39.20;;;21.75;;
69795;SDS011;57073;45.650;9.612;2023-12-20T21:46:25;38.93;;;21.23;;
69795;SDS011;57073;45.650;9.612;2023-12-20T21:51:26;42.67;;;22.50;;
69795;SDS011;57073;45.650;9.612;2023-12-20T21:56:27;46.37;;;22.57;;
69795;SDS011;57073;45.650;9.612;2023-12-20T22:01:27;36.77;;;21.13;;
69795;SDS011;57073;45.650;9.612;2023-12-20T22:06:27;39.57;;;21.63;;
69795;SDS011;57073;45.650;9.612;2023-12-20T22:11:28;37.50;;;21.83;;
69795;SDS011;57073;45.650;9.612;2023-12-20T22:16:28;42.13;;;22.00;;
69795;SDS011;57073;45.650;9.612;2023-12-20T22:21:29;39.35;;;20.95;;
69795;SDS011;57073;45.650;9.612;2023-12-20T22:26:29;32.90;;;18.30;;
69795;SDS011;57073;45.650;9.612;2023-12-20T22:31:30;36.87;;;20.07;;
69795;SDS011;57073;45.650;9.612;2023-12-20T22:36:31;32.80;;;18.17;;
69795;SDS011;57073;45.650;9.612;2023-12-20T22:41:31;35.17;;;17.97;;
69795;SDS011;57073;45.650;9.612;2023-12-20T22:46:32;32.23;;;17.67;;
69795;SDS011;57073;45.650;9.612;2023-12-20T22:51:33;33.97;;;18.73;;
69795;SDS011;57073;45.650;9.612;2023-12-20T22:56:33;36.40;;;18.37;;
69795;SDS011;57073;45.650;9.612;2023-12-20T23:01:34;37.40;;;18.47;;
69795;SDS011;57073;45.650;9.612;2023-12-20T23:06:34;35.20;;;17.83;;
69795;SDS011;57073;45.650;9.612;2023-12-20T23:11:35;34.40;;;17.87;;
69795;SDS011;57073;45.650;9.612;2023-12-20T23:16:36;35.08;;;18.20;;
69795;SDS011;57073;45.650;9.612;2023-12-20T23:21:37;39.63;;;17.95;;
69795;SDS011;57073;45.650;9.612;2023-12-20T23:26:37;33.07;;;18.07;;
69795;SDS011;57073;45.650;9.612;2023-12-20T23:31:38;36.53;;;17.73;;
69795;SDS011;57073;45.650;9.612;2023-12-20T23:36:38;29.43;;;16.73;;
69795;SDS011;57073;45.650;9.612;2023-12-20T23:41:39;38.47;;;17.30;;
69795;SDS011;57073;45.650;9.612;2023-12-20T23:46:39;29.50;;;16.50;;
69795;SDS011;57073;45.650;9.612;2023-12-20T23:51:39;32.10;;;16.83;;
69795;SDS011;57073;45.650;9.612;2023-12-20T23:56:41;31.63;;;16.00;;
